sensor_id;sensor_type;location;lat;lon;timestamp;P1;durP1;ratioP1;P2;durP2;ratioP2
21894;SDS011;11112;51.270;7.224;2024-03-06T00:00:11;23.35;;;16.48;;
21894;SDS011;11112;51.270;7.224;2024-03-06T00:02:39;21.15;;;15.48;;
21894;SDS011;11112;51.270;7.224;2024-03-06T00:05:07;22.63;;;15.85;;
21894;SDS011;11112;51.270;7.224;2024-03-06T00:07:34;21.38;;;15.43;;
21894;SDS011;11112;51.270;7.224;2024-03-06T00:10:02;22.58;;;15.85;;
21894;SDS011;11112;51.270;7.224;2024-03-06T00:12:32;21.40;;;15.68;;
21894;SDS011;11112;51.270;7.224;2024-03-06T00:14:59;22.90;;;17.40;;
21894;SDS011;11112;51.270;7.224;2024-03-06T00:17:27;23.13;;;16.80;;
21894;SDS011;11112;51.270;7.224;2024-03-06T00:19:54;23.50;;;16.95;;
21894;SDS011;11112;51.270;7.224;2024-03-06T00:22:21;22.20;;;16.55;;
21894;SDS011;11112;51.270;7.224;2024-03-06T00:24:49;19.30;;;14.90;;
21894;SDS011;11112;51.270;7.224;2024-03-06T00:27:16;19.13;;;14.93;;
21894;SDS011;11112;51.270;7.224;2024-03-06T00:29:44;18.27;;;14.52;;
21894;SDS011;11112;51.270;7.224;2024-03-06T00:32:11;24.23;;;14.52;;
21894;SDS011;11112;51.270;7.224;2024-03-06T00:34:39;19.35;;;14.35;;
21894;SDS011;11112;51.270;7.224;2024-03-06T00:37:06;19.27;;;14.15;;
21894;SDS011;11112;51.270;7.224;2024-03-06T00:39:33;21.10;;;15.52;;
21894;SDS011;11112;51.270;7.224;2024-03-06T00:42:01;21.13;;;15.20;;
21894;SDS011;11112;51.270;7.224;2024-03-06T00:44:30;22.45;;;16.05;;
21894;SDS011;11112;51.270;7.224;2024-03-06T00:46:58;36.20;;;18.13;;
21894;SDS011;11112;51.270;7.224;2024-03-06T00:49:26;22.90;;;16.88;;
21894;SDS011;11112;51.270;7.224;2024-03-06T00:51:53;23.30;;;16.00;;
21894;SDS011;11112;51.270;7.224;2024-03-06T00:54:20;21.00;;;16.00;;
21894;SDS011;11112;51.270;7.224;2024-03-06T00:56:47;21.73;;;15.57;;
21894;SDS011;11112;51.270;7.224;2024-03-06T00:59:14;18.88;;;14.73;;
21894;SDS011;11112;51.270;7.224;2024-03-06T01:01:41;19.45;;;14.02;;
21894;SDS011;11112;51.270;7.224;2024-03-06T01:04:09;18.88;;;15.05;;
21894;SDS011;11112;51.270;7.224;2024-03-06T01:06:36;18.90;;;14.57;;
21894;SDS011;11112;51.270;7.224;2024-03-06T01:09:03;17.45;;;13.52;;
21894;SDS011;11112;51.270;7.224;2024-03-06T01:11:30;18.42;;;14.90;;
21894;SDS011;11112;51.270;7.224;2024-03-06T01:13:57;18.55;;;14.15;;
21894;SDS011;11112;51.270;7.224;2024-03-06T01:16:27;21.02;;;15.23;;
21894;SDS011;11112;51.270;7.224;2024-03-06T01:18:55;19.98;;;15.35;;
21894;SDS011;11112;51.270;7.224;2024-03-06T01:21:23;18.30;;;14.18;;
21894;SDS011;11112;51.270;7.224;2024-03-06T01:23:50;20.13;;;14.18;;
21894;SDS011;11112;51.270;7.224;2024-03-06T01:26:17;21.75;;;15.70;;
21894;SDS011;11112;51.270;7.224;2024-03-06T01:28:44;19.65;;;14.85;;
21894;SDS011;11112;51.270;7.224;2024-03-06T01:31:11;18.48;;;13.95;;
21894;SDS011;11112;51.270;7.224;2024-03-06T01:33:38;21.50;;;15.77;;
21894;SDS011;11112;51.270;7.224;2024-03-06T01:36:06;21.30;;;15.35;;
21894;SDS011;11112;51.270;7.224;2024-03-06T01:38:34;19.00;;;14.52;;
21894;SDS011;11112;51.270;7.224;2024-03-06T01:41:01;21.15;;;15.38;;
21894;SDS011;11112;51.270;7.224;2024-03-06T01:43:36;18.77;;;14.52;;
21894;SDS011;11112;51.270;7.224;2024-03-06T01:46:04;20.17;;;14.68;;
21894;SDS011;11112;51.270;7.224;2024-03-06T01:48:32;18.45;;;14.30;;
21894;SDS011;11112;51.270;7.224;2024-03-06T01:51:01;22.27;;;16.27;;
21894;SDS011;11112;51.270;7.224;2024-03-06T01:53:31;23.45;;;15.63;;
21894;SDS011;11112;51.270;7.224;2024-03-06T01:56:00;21.63;;;15.68;;
21894;SDS011;11112;51.270;7.224;2024-03-06T01:58:30;21.67;;;15.45;;
21894;SDS011;11112;51.270;7.224;2024-03-06T02:00:59;19.20;;;15.20;;
21894;SDS011;11112;51.270;7.224;2024-03-06T02:03:26;20.63;;;14.98;;
21894;SDS011;11112;51.270;7.224;2024-03-06T02:05:54;21.13;;;14.52;;
21894;SDS011;11112;51.270;7.224;2024-03-06T02:08:23;21.85;;;16.60;;
21894;SDS011;11112;51.270;7.224;2024-03-06T02:10:50;20.10;;;15.70;;
21894;SDS011;11112;51.270;7.224;2024-03-06T02:13:18;22.80;;;15.60;;
21894;SDS011;11112;51.270;7.224;2024-03-06T02:15:46;20.00;;;15.52;;
21894;SDS011;11112;51.270;7.224;2024-03-06T02:18:14;19.92;;;15.43;;
21894;SDS011;11112;51.270;7.224;2024-03-06T02:20:42;19.85;;;15.70;;
21894;SDS011;11112;51.270;7.224;2024-03-06T02:23:11;20.08;;;15.40;;
21894;SDS011;11112;51.270;7.224;2024-03-06T02:25:38;17.85;;;13.95;;
21894;SDS011;11112;51.270;7.224;2024-03-06T02:28:05;18.50;;;14.73;;
21894;SDS011;11112;51.270;7.224;2024-03-06T02:30:32;18.08;;;14.25;;
21894;SDS011;11112;51.270;7.224;2024-03-06T02:33:01;17.80;;;14.07;;
21894;SDS011;11112;51.270;7.224;2024-03-06T02:35:29;19.80;;;13.50;;
21894;SDS011;11112;51.270;7.224;2024-03-06T02:37:57;19.30;;;14.68;;
21894;SDS011;11112;51.270;7.224;2024-03-06T02:40:25;18.70;;;13.95;;
21894;SDS011;11112;51.270;7.224;2024-03-06T02:42:52;18.67;;;14.38;;
21894;SDS011;11112;51.270;7.224;2024-03-06T02:45:20;18.83;;;14.98;;
21894;SDS011;11112;51.270;7.224;2024-03-06T02:47:47;20.50;;;15.70;;
21894;SDS011;11112;51.270;7.224;2024-03-06T02:50:14;18.50;;;14.63;;
21894;SDS011;11112;51.270;7.224;2024-03-06T02:52:41;18.50;;;14.32;;
21894;SDS011;11112;51.270;7.224;2024-03-06T02:55:10;19.08;;;14.35;;
21894;SDS011;11112;51.270;7.224;2024-03-06T02:57:37;18.67;;;14.63;;
21894;SDS011;11112;51.270;7.224;2024-03-06T03:00:06;18.08;;;14.32;;
21894;SDS011;11112;51.270;7.224;2024-03-06T03:02:38;19.50;;;14.10;;
21894;SDS011;11112;51.270;7.224;2024-03-06T03:05:05;19.90;;;14.95;;
21894;SDS011;11112;51.270;7.224;2024-03-06T03:07:33;19.65;;;14.65;;
21894;SDS011;11112;51.270;7.224;2024-03-06T03:10:00;19.80;;;14.98;;
21894;SDS011;11112;51.270;7.224;2024-03-06T03:12:30;20.90;;;15.38;;
21894;SDS011;11112;51.270;7.224;2024-03-06T03:14:58;21.10;;;15.27;;
21894;SDS011;11112;51.270;7.224;2024-03-06T03:17:25;20.58;;;15.00;;
21894;SDS011;11112;51.270;7.224;2024-03-06T03:19:52;19.25;;;14.38;;
21894;SDS011;11112;51.270;7.224;2024-03-06T03:22:20;19.40;;;14.55;;
21894;SDS011;11112;51.270;7.224;2024-03-06T03:24:47;20.17;;;14.68;;
21894;SDS011;11112;51.270;7.224;2024-03-06T03:27:14;20.63;;;15.38;;
21894;SDS011;11112;51.270;7.224;2024-03-06T03:29:42;20.75;;;15.45;;
21894;SDS011;11112;51.270;7.224;2024-03-06T03:32:10;23.63;;;17.55;;
21894;SDS011;11112;51.270;7.224;2024-03-06T03:34:37;23.08;;;17.38;;
21894;SDS011;11112;51.270;7.224;2024-03-06T03:37:04;24.10;;;17.52;;
21894;SDS011;11112;51.270;7.224;2024-03-06T03:39:31;23.20;;;17.40;;
21894;SDS011;11112;51.270;7.224;2024-03-06T03:41:58;22.70;;;16.27;;
21894;SDS011;11112;51.270;7.224;2024-03-06T03:44:25;21.65;;;15.95;;
21894;SDS011;11112;51.270;7.224;2024-03-06T03:46:54;22.08;;;15.98;;
21894;SDS011;11112;51.270;7.224;2024-03-06T03:49:21;21.52;;;16.45;;
21894;SDS011;11112;51.270;7.224;2024-03-06T03:51:48;22.85;;;16.25;;
21894;SDS011;11112;51.270;7.224;2024-03-06T03:54:15;22.25;;;16.80;;
21894;SDS011;11112;51.270;7.224;2024-03-06T03:56:43;19.08;;;15.10;;
21894;SDS011;11112;51.270;7.224;2024-03-06T03:59:10;19.75;;;15.13;;
21894;SDS011;11112;51.270;7.224;2024-03-06T04:01:37;22.67;;;16.73;;
21894;SDS011;11112;51.270;7.224;2024-03-06T04:04:06;21.50;;;16.13;;
21894;SDS011;11112;51.270;7.224;2024-03-06T04:06:33;20.90;;;15.75;;
21894;SDS011;11112;51.270;7.224;2024-03-06T04:09:00;20.75;;;15.93;;
21894;SDS011;11112;51.270;7.224;2024-03-06T04:11:28;21.45;;;15.80;;
21894;SDS011;11112;51.270;7.224;2024-03-06T04:13:55;20.55;;;15.90;;
21894;SDS011;11112;51.270;7.224;2024-03-06T04:16:22;19.90;;;15.48;;
21894;SDS011;11112;51.270;7.224;2024-03-06T04:18:49;18.27;;;14.65;;
21894;SDS011;11112;51.270;7.224;2024-03-06T04:21:18;19.88;;;15.55;;
21894;SDS011;11112;51.270;7.224;2024-03-06T04:23:45;20.58;;;14.88;;
21894;SDS011;11112;51.270;7.224;2024-03-06T04:26:12;19.88;;;15.05;;
21894;SDS011;11112;51.270;7.224;2024-03-06T04:28:40;20.02;;;15.50;;
21894;SDS011;11112;51.270;7.224;2024-03-06T04:31:07;20.40;;;15.35;;
21894;SDS011;11112;51.270;7.224;2024-03-06T04:33:34;20.40;;;15.77;;
21894;SDS011;11112;51.270;7.224;2024-03-06T04:36:02;20.92;;;15.70;;
21894;SDS011;11112;51.270;7.224;2024-03-06T04:38:32;21.00;;;15.38;;
21894;SDS011;11112;51.270;7.224;2024-03-06T04:40:59;21.17;;;15.52;;
21894;SDS011;11112;51.270;7.224;2024-03-06T04:43:26;19.00;;;14.85;;
21894;SDS011;11112;51.270;7.224;2024-03-06T04:45:53;19.75;;;15.13;;
21894;SDS011;11112;51.270;7.224;2024-03-06T04:48:20;19.45;;;15.07;;
21894;SDS011;11112;51.270;7.224;2024-03-06T04:50:47;22.65;;;16.20;;
21894;SDS011;11112;51.270;7.224;2024-03-06T04:53:15;21.25;;;15.55;;
21894;SDS011;11112;51.270;7.224;2024-03-06T04:55:43;23.45;;;16.83;;
21894;SDS011;11112;51.270;7.224;2024-03-06T04:58:10;23.83;;;16.65;;
21894;SDS011;11112;51.270;7.224;2024-03-06T05:00:37;21.13;;;15.95;;
21894;SDS011;11112;51.270;7.224;2024-03-06T05:03:04;22.48;;;16.38;;
21894;SDS011;11112;51.270;7.224;2024-03-06T05:05:31;24.02;;;17.27;;
21894;SDS011;11112;51.270;7.224;2024-03-06T05:07:58;22.27;;;16.02;;
21894;SDS011;11112;51.270;7.224;2024-03-06T05:10:26;21.30;;;15.77;;
21894;SDS011;11112;51.270;7.224;2024-03-06T05:12:54;21.65;;;16.48;;
21894;SDS011;11112;51.270;7.224;2024-03-06T05:15:21;26.10;;;17.45;;
21894;SDS011;11112;51.270;7.224;2024-03-06T05:17:48;23.45;;;17.02;;
21894;SDS011;11112;51.270;7.224;2024-03-06T05:20:15;24.77;;;17.15;;
21894;SDS011;11112;51.270;7.224;2024-03-06T05:22:42;23.85;;;17.17;;
21894;SDS011;11112;51.270;7.224;2024-03-06T05:25:09;23.02;;;16.85;;
21894;SDS011;11112;51.270;7.224;2024-03-06T05:27:36;23.98;;;17.20;;
21894;SDS011;11112;51.270;7.224;2024-03-06T05:30:06;23.85;;;17.30;;
21894;SDS011;11112;51.270;7.224;2024-03-06T05:32:33;22.00;;;16.20;;
21894;SDS011;11112;51.270;7.224;2024-03-06T05:35:00;23.30;;;16.58;;
21894;SDS011;11112;51.270;7.224;2024-03-06T05:37:28;21.33;;;15.75;;
21894;SDS011;11112;51.270;7.224;2024-03-06T05:39:55;22.58;;;16.15;;
21894;SDS011;11112;51.270;7.224;2024-03-06T05:42:22;22.48;;;15.98;;
21894;SDS011;11112;51.270;7.224;2024-03-06T05:44:50;23.10;;;17.02;;
21894;SDS011;11112;51.270;7.224;2024-03-06T05:47:21;21.90;;;15.93;;
21894;SDS011;11112;51.270;7.224;2024-03-06T05:49:48;23.67;;;16.40;;
21894;SDS011;11112;51.270;7.224;2024-03-06T05:52:15;23.42;;;15.85;;
21894;SDS011;11112;51.270;7.224;2024-03-06T05:54:42;27.27;;;16.88;;
21894;SDS011;11112;51.270;7.224;2024-03-06T05:57:09;34.42;;;18.45;;
21894;SDS011;11112;51.270;7.224;2024-03-06T05:59:36;35.13;;;18.80;;
21894;SDS011;11112;51.270;7.224;2024-03-06T06:02:05;36.95;;;19.77;;
21894;SDS011;11112;51.270;7.224;2024-03-06T06:04:34;34.47;;;19.63;;
21894;SDS011;11112;51.270;7.224;2024-03-06T06:07:01;30.33;;;18.92;;
21894;SDS011;11112;51.270;7.224;2024-03-06T06:09:29;32.35;;;19.38;;
21894;SDS011;11112;51.270;7.224;2024-03-06T06:11:59;52.03;;;20.80;;
21894;SDS011;11112;51.270;7.224;2024-03-06T06:14:26;32.10;;;20.23;;
21894;SDS011;11112;51.270;7.224;2024-03-06T06:16:54;50.95;;;21.92;;
21894;SDS011;11112;51.270;7.224;2024-03-06T06:19:25;30.23;;;19.63;;
21894;SDS011;11112;51.270;7.224;2024-03-06T06:21:54;90.47;;;20.80;;
21894;SDS011;11112;51.270;7.224;2024-03-06T06:24:21;30.02;;;20.08;;
21894;SDS011;11112;51.270;7.224;2024-03-06T06:26:48;50.33;;;20.10;;
21894;SDS011;11112;51.270;7.224;2024-03-06T06:29:15;29.05;;;20.27;;
21894;SDS011;11112;51.270;7.224;2024-03-06T06:31:44;29.58;;;19.25;;
21894;SDS011;11112;51.270;7.224;2024-03-06T06:34:11;30.35;;;19.30;;
21894;SDS011;11112;51.270;7.224;2024-03-06T06:36:38;27.88;;;19.10;;
21894;SDS011;11112;51.270;7.224;2024-03-06T06:39:12;29.08;;;19.48;;
21894;SDS011;11112;51.270;7.224;2024-03-06T06:41:39;29.23;;;19.13;;
21894;SDS011;11112;51.270;7.224;2024-03-06T06:44:06;28.00;;;19.10;;
21894;SDS011;11112;51.270;7.224;2024-03-06T06:46:33;30.63;;;19.88;;
21894;SDS011;11112;51.270;7.224;2024-03-06T06:49:00;31.45;;;19.30;;
21894;SDS011;11112;51.270;7.224;2024-03-06T06:51:27;30.90;;;20.30;;
21894;SDS011;11112;51.270;7.224;2024-03-06T06:53:54;41.80;;;23.52;;
21894;SDS011;11112;51.270;7.224;2024-03-06T06:56:23;40.35;;;23.33;;
21894;SDS011;11112;51.270;7.224;2024-03-06T06:58:50;43.22;;;22.50;;
21894;SDS011;11112;51.270;7.224;2024-03-06T07:01:17;69.72;;;23.63;;
21894;SDS011;11112;51.270;7.224;2024-03-06T07:03:45;35.63;;;22.75;;
21894;SDS011;11112;51.270;7.224;2024-03-06T07:06:12;38.85;;;23.77;;
21894;SDS011;11112;51.270;7.224;2024-03-06T07:08:39;38.35;;;22.85;;
21894;SDS011;11112;51.270;7.224;2024-03-06T07:11:06;32.78;;;21.33;;
21894;SDS011;11112;51.270;7.224;2024-03-06T07:13:34;34.05;;;22.08;;
21894;SDS011;11112;51.270;7.224;2024-03-06T07:16:02;29.98;;;20.00;;
21894;SDS011;11112;51.270;7.224;2024-03-06T07:18:30;45.95;;;18.00;;
21894;SDS011;11112;51.270;7.224;2024-03-06T07:20:58;36.75;;;18.63;;
21894;SDS011;11112;51.270;7.224;2024-03-06T07:23:25;28.08;;;17.35;;
21894;SDS011;11112;51.270;7.224;2024-03-06T07:25:52;31.80;;;18.73;;
21894;SDS011;11112;51.270;7.224;2024-03-06T07:28:19;26.05;;;17.40;;
21894;SDS011;11112;51.270;7.224;2024-03-06T07:30:48;28.10;;;17.52;;
21894;SDS011;11112;51.270;7.224;2024-03-06T07:33:15;23.63;;;16.77;;
21894;SDS011;11112;51.270;7.224;2024-03-06T07:35:42;23.90;;;16.48;;
21894;SDS011;11112;51.270;7.224;2024-03-06T07:38:09;23.52;;;16.55;;
21894;SDS011;11112;51.270;7.224;2024-03-06T07:40:36;21.98;;;16.42;;
21894;SDS011;11112;51.270;7.224;2024-03-06T07:43:03;21.63;;;15.65;;
21894;SDS011;11112;51.270;7.224;2024-03-06T07:45:31;19.88;;;14.75;;
21894;SDS011;11112;51.270;7.224;2024-03-06T07:47:59;24.60;;;16.23;;
21894;SDS011;11112;51.270;7.224;2024-03-06T07:50:29;21.58;;;15.15;;
21894;SDS011;11112;51.270;7.224;2024-03-06T07:52:56;20.33;;;14.80;;
21894;SDS011;11112;51.270;7.224;2024-03-06T07:55:23;22.33;;;15.95;;
21894;SDS011;11112;51.270;7.224;2024-03-06T07:57:51;19.52;;;14.40;;
21894;SDS011;11112;51.270;7.224;2024-03-06T08:00:18;22.25;;;14.70;;
21894;SDS011;11112;51.270;7.224;2024-03-06T08:02:46;19.45;;;14.70;;
21894;SDS011;11112;51.270;7.224;2024-03-06T08:05:18;18.88;;;13.90;;
21894;SDS011;11112;51.270;7.224;2024-03-06T08:07:46;16.88;;;12.95;;
21894;SDS011;11112;51.270;7.224;2024-03-06T08:10:13;17.17;;;13.93;;
21894;SDS011;11112;51.270;7.224;2024-03-06T08:12:44;16.90;;;13.30;;
21894;SDS011;11112;51.270;7.224;2024-03-06T08:15:13;15.65;;;12.43;;
21894;SDS011;11112;51.270;7.224;2024-03-06T08:17:42;17.23;;;13.63;;
21894;SDS011;11112;51.270;7.224;2024-03-06T08:20:10;15.82;;;12.80;;
21894;SDS011;11112;51.270;7.224;2024-03-06T08:22:40;15.80;;;12.63;;
21894;SDS011;11112;51.270;7.224;2024-03-06T08:25:09;15.98;;;12.50;;
21894;SDS011;11112;51.270;7.224;2024-03-06T08:27:38;18.65;;;13.70;;
21894;SDS011;11112;51.270;7.224;2024-03-06T08:30:07;15.20;;;12.30;;
21894;SDS011;11112;51.270;7.224;2024-03-06T08:32:35;16.38;;;13.00;;
21894;SDS011;11112;51.270;7.224;2024-03-06T08:35:03;17.38;;;13.38;;
21894;SDS011;11112;51.270;7.224;2024-03-06T08:37:32;17.27;;;13.85;;
21894;SDS011;11112;51.270;7.224;2024-03-06T08:40:02;16.77;;;13.52;;
21894;SDS011;11112;51.270;7.224;2024-03-06T08:42:30;17.90;;;14.00;;
21894;SDS011;11112;51.270;7.224;2024-03-06T08:44:57;16.70;;;13.43;;
21894;SDS011;11112;51.270;7.224;2024-03-06T08:47:26;16.95;;;13.20;;
21894;SDS011;11112;51.270;7.224;2024-03-06T08:49:53;16.52;;;13.00;;
21894;SDS011;11112;51.270;7.224;2024-03-06T08:52:20;15.50;;;12.85;;
21894;SDS011;11112;51.270;7.224;2024-03-06T08:54:47;16.95;;;13.48;;
21894;SDS011;11112;51.270;7.224;2024-03-06T08:57:16;16.67;;;13.00;;
21894;SDS011;11112;51.270;7.224;2024-03-06T08:59:46;17.23;;;13.63;;
21894;SDS011;11112;51.270;7.224;2024-03-06T09:02:13;19.10;;;13.75;;
21894;SDS011;11112;51.270;7.224;2024-03-06T09:04:42;17.48;;;13.93;;
21894;SDS011;11112;51.270;7.224;2024-03-06T09:07:09;17.40;;;13.68;;
21894;SDS011;11112;51.270;7.224;2024-03-06T09:09:37;18.38;;;14.25;;
21894;SDS011;11112;51.270;7.224;2024-03-06T09:12:05;19.65;;;14.85;;
21894;SDS011;11112;51.270;7.224;2024-03-06T09:14:36;19.73;;;14.75;;
21894;SDS011;11112;51.270;7.224;2024-03-06T09:17:04;19.65;;;14.32;;
21894;SDS011;11112;51.270;7.224;2024-03-06T09:19:34;22.23;;;14.80;;
21894;SDS011;11112;51.270;7.224;2024-03-06T09:22:01;18.20;;;14.13;;
21894;SDS011;11112;51.270;7.224;2024-03-06T09:24:29;18.30;;;13.82;;
21894;SDS011;11112;51.270;7.224;2024-03-06T09:26:56;19.80;;;15.02;;
21894;SDS011;11112;51.270;7.224;2024-03-06T09:29:23;20.40;;;15.27;;
21894;SDS011;11112;51.270;7.224;2024-03-06T09:31:52;18.90;;;14.38;;
21894;SDS011;11112;51.270;7.224;2024-03-06T09:34:19;19.27;;;15.20;;
21894;SDS011;11112;51.270;7.224;2024-03-06T09:36:47;18.23;;;14.32;;
21894;SDS011;11112;51.270;7.224;2024-03-06T09:39:16;20.23;;;15.65;;
21894;SDS011;11112;51.270;7.224;2024-03-06T09:41:45;20.83;;;15.50;;
21894;SDS011;11112;51.270;7.224;2024-03-06T09:44:14;21.42;;;15.82;;
21894;SDS011;11112;51.270;7.224;2024-03-06T09:46:41;22.20;;;16.73;;
21894;SDS011;11112;51.270;7.224;2024-03-06T09:49:12;21.92;;;16.88;;
21894;SDS011;11112;51.270;7.224;2024-03-06T09:51:41;22.02;;;16.63;;
21894;SDS011;11112;51.270;7.224;2024-03-06T09:54:11;24.13;;;16.83;;
21894;SDS011;11112;51.270;7.224;2024-03-06T09:56:41;22.27;;;17.38;;
21894;SDS011;11112;51.270;7.224;2024-03-06T09:59:10;26.67;;;18.20;;
21894;SDS011;11112;51.270;7.224;2024-03-06T10:01:38;24.77;;;17.23;;
21894;SDS011;11112;51.270;7.224;2024-03-06T10:04:20;26.70;;;17.92;;
21894;SDS011;11112;51.270;7.224;2024-03-06T10:06:50;25.40;;;17.92;;
21894;SDS011;11112;51.270;7.224;2024-03-06T10:09:20;26.98;;;19.02;;
21894;SDS011;11112;51.270;7.224;2024-03-06T10:11:47;27.98;;;19.05;;
21894;SDS011;11112;51.270;7.224;2024-03-06T10:14:15;26.23;;;19.75;;
21894;SDS011;11112;51.270;7.224;2024-03-06T10:16:52;26.42;;;19.80;;
21894;SDS011;11112;51.270;7.224;2024-03-06T10:19:22;25.35;;;19.45;;
21894;SDS011;11112;51.270;7.224;2024-03-06T10:21:52;25.95;;;19.13;;
21894;SDS011;11112;51.270;7.224;2024-03-06T10:24:20;27.08;;;19.63;;
21894;SDS011;11112;51.270;7.224;2024-03-06T10:26:49;31.73;;;20.50;;
21894;SDS011;11112;51.270;7.224;2024-03-06T10:29:19;28.83;;;20.60;;
21894;SDS011;11112;51.270;7.224;2024-03-06T10:31:48;27.58;;;19.92;;
21894;SDS011;11112;51.270;7.224;2024-03-06T10:34:17;26.45;;;19.13;;
21894;SDS011;11112;51.270;7.224;2024-03-06T10:36:46;26.30;;;19.45;;
21894;SDS011;11112;51.270;7.224;2024-03-06T10:39:20;27.27;;;19.65;;
21894;SDS011;11112;51.270;7.224;2024-03-06T10:41:49;21.73;;;16.50;;
21894;SDS011;11112;51.270;7.224;2024-03-06T10:44:20;24.95;;;17.52;;
21894;SDS011;11112;51.270;7.224;2024-03-06T10:46:51;23.10;;;16.88;;
21894;SDS011;11112;51.270;7.224;2024-03-06T10:49:25;23.58;;;17.63;;
21894;SDS011;11112;51.270;7.224;2024-03-06T10:51:56;25.55;;;17.40;;
21894;SDS011;11112;51.270;7.224;2024-03-06T10:54:26;25.67;;;17.42;;
21894;SDS011;11112;51.270;7.224;2024-03-06T10:56:55;24.77;;;18.27;;
21894;SDS011;11112;51.270;7.224;2024-03-06T10:59:24;26.92;;;18.25;;
21894;SDS011;11112;51.270;7.224;2024-03-06T11:01:53;22.50;;;16.85;;
21894;SDS011;11112;51.270;7.224;2024-03-06T11:04:21;21.52;;;16.27;;
21894;SDS011;11112;51.270;7.224;2024-03-06T11:06:51;23.85;;;17.65;;
21894;SDS011;11112;51.270;7.224;2024-03-06T11:09:20;22.85;;;15.45;;
21894;SDS011;11112;51.270;7.224;2024-03-06T11:11:47;19.83;;;14.65;;
21894;SDS011;11112;51.270;7.224;2024-03-06T11:14:16;18.75;;;14.35;;
21894;SDS011;11112;51.270;7.224;2024-03-06T11:16:57;19.45;;;14.60;;
21894;SDS011;11112;51.270;7.224;2024-03-06T11:19:27;21.02;;;13.18;;
21894;SDS011;11112;51.270;7.224;2024-03-06T11:21:55;14.10;;;10.40;;
21894;SDS011;11112;51.270;7.224;2024-03-06T11:24:23;14.73;;;10.35;;
21894;SDS011;11112;51.270;7.224;2024-03-06T11:26:59;15.05;;;11.27;;
21894;SDS011;11112;51.270;7.224;2024-03-06T11:29:28;14.32;;;10.88;;
21894;SDS011;11112;51.270;7.224;2024-03-06T11:32:17;13.23;;;10.43;;
21894;SDS011;11112;51.270;7.224;2024-03-06T11:34:44;15.68;;;10.85;;
21894;SDS011;11112;51.270;7.224;2024-03-06T11:37:11;18.55;;;12.45;;
21894;SDS011;11112;51.270;7.224;2024-03-06T11:39:40;17.08;;;12.48;;
21894;SDS011;11112;51.270;7.224;2024-03-06T11:42:10;18.83;;;13.65;;
21894;SDS011;11112;51.270;7.224;2024-03-06T11:44:51;19.20;;;14.15;;
21894;SDS011;11112;51.270;7.224;2024-03-06T11:47:20;17.33;;;12.20;;
21894;SDS011;11112;51.270;7.224;2024-03-06T11:49:47;13.77;;;10.18;;
21894;SDS011;11112;51.270;7.224;2024-03-06T11:52:15;14.48;;;10.23;;
21894;SDS011;11112;51.270;7.224;2024-03-06T11:54:44;13.95;;;10.18;;
21894;SDS011;11112;51.270;7.224;2024-03-06T11:57:11;13.15;;;9.80;;
21894;SDS011;11112;51.270;7.224;2024-03-06T11:59:41;17.75;;;12.43;;
21894;SDS011;11112;51.270;7.224;2024-03-06T12:02:08;18.52;;;12.88;;
21894;SDS011;11112;51.270;7.224;2024-03-06T12:04:36;15.95;;;12.32;;
21894;SDS011;11112;51.270;7.224;2024-03-06T12:07:03;17.83;;;12.05;;
21894;SDS011;11112;51.270;7.224;2024-03-06T12:09:32;18.02;;;12.18;;
21894;SDS011;11112;51.270;7.224;2024-03-06T12:12:01;18.38;;;12.30;;
21894;SDS011;11112;51.270;7.224;2024-03-06T12:14:29;19.10;;;11.80;;
21894;SDS011;11112;51.270;7.224;2024-03-06T12:16:56;16.92;;;11.35;;
21894;SDS011;11112;51.270;7.224;2024-03-06T12:19:25;16.95;;;11.52;;
21894;SDS011;11112;51.270;7.224;2024-03-06T12:21:54;18.08;;;11.80;;
21894;SDS011;11112;51.270;7.224;2024-03-06T12:24:22;14.60;;;11.43;;
21894;SDS011;11112;51.270;7.224;2024-03-06T12:26:57;14.68;;;10.95;;
21894;SDS011;11112;51.270;7.224;2024-03-06T12:29:27;17.33;;;11.65;;
21894;SDS011;11112;51.270;7.224;2024-03-06T12:31:57;15.57;;;11.63;;
21894;SDS011;11112;51.270;7.224;2024-03-06T12:34:24;16.45;;;11.32;;
21894;SDS011;11112;51.270;7.224;2024-03-06T12:36:53;16.35;;;12.07;;
21894;SDS011;11112;51.270;7.224;2024-03-06T12:39:21;17.75;;;12.55;;
21894;SDS011;11112;51.270;7.224;2024-03-06T12:41:50;18.05;;;13.13;;
21894;SDS011;11112;51.270;7.224;2024-03-06T12:44:18;18.77;;;12.23;;
21894;SDS011;11112;51.270;7.224;2024-03-06T12:46:47;17.42;;;12.20;;
21894;SDS011;11112;51.270;7.224;2024-03-06T12:49:15;17.50;;;11.60;;
21894;SDS011;11112;51.270;7.224;2024-03-06T12:51:43;16.77;;;11.25;;
21894;SDS011;11112;51.270;7.224;2024-03-06T12:54:11;17.88;;;11.15;;
21894;SDS011;11112;51.270;7.224;2024-03-06T12:56:38;14.30;;;10.27;;
21894;SDS011;11112;51.270;7.224;2024-03-06T12:59:08;14.77;;;9.93;;
21894;SDS011;11112;51.270;7.224;2024-03-06T13:01:36;14.50;;;9.27;;
21894;SDS011;11112;51.270;7.224;2024-03-06T13:04:04;15.60;;;9.57;;
21894;SDS011;11112;51.270;7.224;2024-03-06T13:06:32;14.80;;;10.38;;
21894;SDS011;11112;51.270;7.224;2024-03-06T13:09:00;17.05;;;11.40;;
21894;SDS011;11112;51.270;7.224;2024-03-06T13:11:27;16.83;;;11.00;;
21894;SDS011;11112;51.270;7.224;2024-03-06T13:13:54;16.05;;;10.80;;
21894;SDS011;11112;51.270;7.224;2024-03-06T13:16:21;13.75;;;10.02;;
21894;SDS011;11112;51.270;7.224;2024-03-06T13:18:48;13.88;;;9.57;;
21894;SDS011;11112;51.270;7.224;2024-03-06T13:21:19;16.75;;;9.05;;
21894;SDS011;11112;51.270;7.224;2024-03-06T13:23:46;11.25;;;8.43;;
21894;SDS011;11112;51.270;7.224;2024-03-06T13:26:13;13.63;;;9.18;;
21894;SDS011;11112;51.270;7.224;2024-03-06T13:28:41;14.98;;;9.00;;
21894;SDS011;11112;51.270;7.224;2024-03-06T13:31:08;16.95;;;9.73;;
21894;SDS011;11112;51.270;7.224;2024-03-06T13:33:35;13.45;;;9.32;;
21894;SDS011;11112;51.270;7.224;2024-03-06T13:36:02;15.57;;;10.80;;
21894;SDS011;11112;51.270;7.224;2024-03-06T13:38:31;21.08;;;13.20;;
21894;SDS011;11112;51.270;7.224;2024-03-06T13:40:58;19.98;;;14.60;;
21894;SDS011;11112;51.270;7.224;2024-03-06T13:43:27;20.48;;;15.25;;
21894;SDS011;11112;51.270;7.224;2024-03-06T13:45:54;20.98;;;15.30;;
21894;SDS011;11112;51.270;7.224;2024-03-06T13:48:22;24.63;;;17.50;;
21894;SDS011;11112;51.270;7.224;2024-03-06T13:50:49;22.38;;;16.45;;
21894;SDS011;11112;51.270;7.224;2024-03-06T13:53:17;22.15;;;16.10;;
21894;SDS011;11112;51.270;7.224;2024-03-06T13:55:45;26.35;;;16.85;;
21894;SDS011;11112;51.270;7.224;2024-03-06T13:58:12;23.80;;;16.92;;
21894;SDS011;11112;51.270;7.224;2024-03-06T14:00:39;24.42;;;16.58;;
21894;SDS011;11112;51.270;7.224;2024-03-06T14:03:07;19.60;;;14.05;;
21894;SDS011;11112;51.270;7.224;2024-03-06T14:05:38;20.75;;;15.18;;
21894;SDS011;11112;51.270;7.224;2024-03-06T14:08:05;25.23;;;17.08;;
21894;SDS011;11112;51.270;7.224;2024-03-06T14:10:37;22.10;;;16.15;;
21894;SDS011;11112;51.270;7.224;2024-03-06T14:13:08;22.15;;;16.30;;
21894;SDS011;11112;51.270;7.224;2024-03-06T14:15:35;24.88;;;16.58;;
21894;SDS011;11112;51.270;7.224;2024-03-06T14:18:03;21.70;;;16.02;;
21894;SDS011;11112;51.270;7.224;2024-03-06T14:20:31;21.63;;;14.90;;
21894;SDS011;11112;51.270;7.224;2024-03-06T14:22:58;19.38;;;13.77;;
21894;SDS011;11112;51.270;7.224;2024-03-06T14:25:26;17.83;;;13.32;;